LIBDLATI

Guest
Details From LIBD - Bari Palese Macchie
To LATI - Tirana Rinas
Flight Number -
Tags Generated
Created
Modified
Stats Distance 135 nm / 251 km
Max Altitude 0 ft / 0 m
Waypoints 2
Social Downloads 2
Likes 0
Share VATSIM

Download

Looking for another format? Having issues loading an existing format? Contact us
Advertisement - Login to hide

Notes

Generated

Route

LIBD LATI

ID Type Via Altitude Latitude Longitude Leg Dist Tot Dist Heading (true) Name
O LIBD APT - 0 ft / 0 m 41.13463˚ 16.74687˚ - 0 nm - -
O LATI APT - 0 ft / 0 m 41.42698˚ 19.71894˚ 135 nm 135 nm 82° / 84° -

Altitude Profile

Advertisement - Login to hide

LIBD

Details ICAO LIBD (BRI)
Name Bari Palese Macchie
Region Italy
Timezone Europe/Rome (UTC+2.0)
Stats Elevation 177 ft / 54 m (AMSL)
Location 41.137865° 16.758318°
Runways 1
Magnetic Variation 3.782° E

METAR

LIBD 241950Z 00000KT CAVOK 18/16 Q1015

Decode

TAF

TAF LIBD 241700Z 2418/2518 02010KT 9999 FEW030 BECMG 2420/2422 28008KT BECMG 2508/2510 02012KT

Decode

Departure Runways

ID Width Length Bearing (true) Bearing (mag) Surface Threshold Offset Overrun Length
07 148 ft / 45 m 9,262 ft / 2,823 m 69.39° 65.61° Asphalt 1,257 ft / 383 m 0 ft / 0 m
25 148 ft / 45 m 9,262 ft / 2,823 m 249.42° 245.64° Asphalt 0 ft / 0 m 194 ft / 59 m

LATI

Details ICAO LATI (TIA)
Name Tirana Rinas
Region Albania
Timezone Europe/Tirane (UTC+2.0)
Stats Elevation 126 ft / 38 m (AMSL)
Location 41.414732° 19.720569°
Runways 1
Magnetic Variation 4.278° E

METAR

LATI 241950Z 28002KT 9999 FEW040 SCT110 19/18 Q1014 NOSIG

Decode

TAF

TAF TAF LATI 241700Z 2418/2518 VRB03KT CAVOK PROB40 TEMPO 2423/2505 1500 BCFG NSC TEMPO 2511/2518 34010KT FEW030TCU SCT080

Decode

Destination Runways

ID Width Length Bearing (true) Bearing (mag) Surface Threshold Offset Overrun Length
18 148 ft / 45 m 8,984 ft / 2,738 m 174.31° 170.03° Asphalt 500 ft / 152 m 0 ft / 0 m
36 148 ft / 45 m 8,984 ft / 2,738 m 354.31° 350.03° Asphalt 500 ft / 152 m 0 ft / 0 m

Popular Alternatives